This is the latest recevied weather packets stored in our database for station/object K2ATL. If no packets are shown the sender has not sent any weather packets the latest 10 day(s).
| Time | Temp. | Humidity | Pressure | Rain* | Wind** | Luminosity | Snow |
|---|---|---|---|---|---|---|---|
| 1787954615 | 30.56° C | 59% | 1102.8 hPa | 0 mm | - | 328 W/m² | - |
| 1787954314 | 30° C | 59% | 1102.6 hPa | 0 mm | - | 350 W/m² | - |
| 1787954010 | 29.44° C | 61% | 1102.8 hPa | 0 mm | - | 365 W/m² | - |
| 1787953708 | 29.44° C | 63% | 1103 hPa | 0 mm | - | 389 W/m² | - |
| 1787953404 | 30° C | 63% | 1102.8 hPa | 0 mm | - | 408 W/m² | - |
| 1787953102 | 29.44° C | 60% | 1102.8 hPa | 0 mm | - | 429 W/m² | - |
| 1787952802 | 28.89° C | 62% | 1103 hPa | 0 mm | - | 446 W/m² | - |
| 1787952501 | 29.44° C | 67% | 1102.7 hPa | 0 mm | - | 458 W/m² | - |
| 1787952199 | 30.56° C | 62% | 1102.7 hPa | 0 mm | - | 470 W/m² | - |
| 1787951896 | 30° C | 64% | 1102.8 hPa | 0 mm | - | 496 W/m² | - |
| 1787951593 | 28.33° C | 69% | 1103 hPa | 0 mm | - | 519 W/m² | - |
| 1787951289 | 28.89° C | 63% | 1103 hPa | 0 mm | - | 529 W/m² | - |
| 1787950984 | 28.89° C | 66% | 1102.8 hPa | 0 mm | - | 559 W/m² | - |
| 1787950679 | 28.89° C | 66% | 1103 hPa | 0 mm | - | 575 W/m² | - |
| 1787950375 | 27.78° C | 67% | 1103 hPa | 0 mm | - | 604 W/m² | - |
| 1787950071 | 30.56° C | 63% | 1102.6 hPa | 0 mm | - | 249 W/m² | - |
| 1787949767 | 31.11° C | 56% | 1102.7 hPa | 0 mm | - | 632 W/m² | - |
| 1787949466 | 30° C | 60% | 1102.6 hPa | 0 mm | - | 653 W/m² | - |
| 1787949161 | 28.33° C | 64% | 1103 hPa | 0 mm | - | 671 W/m² | - |
| 1787948857 | 28.33° C | 61% | 1102.6 hPa | 0 mm | - | 691 W/m² | - |
| 1787948557 | 30° C | 63% | 1102.6 hPa | 0 mm | - | 92 W/m² | - |
| 1787948253 | 29.44° C | 64% | 1102.7 hPa | 0 mm | - | 719 W/m² | - |
| 1787947952 | 29.44° C | 62% | 1102.7 hPa | 0 mm | - | 741 W/m² | - |
| 1787947646 | 29.44° C | 59% | 1102.7 hPa | 0 mm | - | 751 W/m² | - |
| 1787947345 | 30° C | 60% | 1102.8 hPa | 0 mm | - | 774 W/m² | - |
* Rain latest hour (hover to see other rain measurements)
** Current wind speed in m/s (hover to see current wind gust speed)